Tiempo atmosférico en la estación meteorológica de Cieza, Murcia (265 m.)



Fecha
DESCASC
Temp. máxima en grados centígrados (hora)
DESCASC
Temp. mínima en grados centígrados (hora)
DESCASC
Temp. media en grados centígrados
DESCASC
Racha de viento máxima en m/sg (hora)
DESCASC
Velocidad máxima media en intervalos de 10 minutos(hora)
DESCASC
Precipitaciones diarias en mm
DESCASC
Precipitaciones de 00:00 a 06:00 en mm
DESCASC
Precipitaciones de 06:00 a 12:00 en mm
DESCASC
Precipitaciones de 12:00 a 18:00 en mm
DESCASC
Precipitaciones de 18:00 a 24:00 en mm
DESCASC
18-04-2019 16.1 (14:10) 9.5 (23:20) 12.8 13.33 (14:30) 7.78 (14:30) 3 0 0 2.2 0.8
17-04-2019 21.2 (14:50) 12.7 (04:00) 17 10.28 (18:40) 6.39 (18:10) 0 0 0 0 0
16-04-2019 25.1 (15:20) 9.1 (00:00) 17.1 11.94 (19:00) 8.33 (18:10) 0 0 0 0 0
15-04-2019 23.1 (12:40) 13.8 (00:00) 18.5 10.56 (17:20) 6.67 (13:30) 0 0 0 0 0
14-04-2019 28.5 (18:10) 7.9 (00:00) 18.2 6.39 (15:00) 3.33 (22:30) 0 0 0 0 0
13-04-2019 25.5 (18:40) 4.9 (00:00) 15.2 7.5 (13:10) 5 (20:10) 0 0 0 0 0
12-04-2019 21.5 (17:20) 7.3 (00:00) 14.4 10.56 (13:30) 5 (18:40) 0 0 0 0 0
11-04-2019 20.3 (17:50) 6.9 (00:00) 13.6 10.83 (14:50) 4.72 (15:00) 0 0 0 0 0
10-04-2019 18.1 (15:20) 6.2 (00:00) 12.2 11.11 (17:10) 6.67 (17:20) 2.8 0 0 0 2.8
09-04-2019 19.7 (16:40) 7.3 (00:00) 13.5 11.67 (01:50) 7.5 (17:40) 0.9 0.8 0.1 0 0
08-04-2019 20.8 (16:40) 9.2 (00:00) 15 8.89 (15:30) 4.72 (15:40) 0 0 0 0 0
07-04-2019 18 (16:50) 6.6 (00:00) 12.3 13.61 (16:00) 7.78 (16:00) 4.5 0 4.5 0 0
06-04-2019 15.8 (13:40) 3.5 (00:00) 9.7 11.39 (17:30) 5.28 (20:10) 0.3 0 0 0.3 0
05-04-2019 19 (14:20) 5.9 (00:00) 12.5 12.78 (21:00) 7.22 (15:20) 4.7 0 0 3.1 1.6
04-04-2019 19.1 (17:20) 6.7 (00:00) 12.9 11.67 (19:00) 6.67 (19:00) 0 0 0 0 0
03-04-2019 23.9 (16:00) 7.7 (00:00) 15.8 8.06 (17:20) 4.72 (17:10) 0 0 0 0 0
02-04-2019 21.9 (18:30) 10.4 (00:00) 16.1 5 (16:00) 3.06 (22:50) 0.6 0.5 0 0.1 0
01-04-2019 19.2 (15:00) 10.9 (00:00) 15.1 8.89 (20:20) 6.11 (17:40) 2.1 0.1 0 0 2
31-03-2019 -- (--) -- (--) -- -- (--) -- (--) -- 2.2 -- 6.6 0.5
30-03-2019 18.4 (14:50) 3.2 (00:00) 10.8 10 (17:10) 6.67 (16:20) 0.3 0 0 0 0.3
29-03-2019 17.5 (14:00) 1.9 (00:00) 9.7 9.72 (18:00) 6.39 (18:20) 0 0 0 0 0
28-03-2019 18.7 (14:40) 1.6 (00:00) 10.2 10.28 (15:30) 6.39 (16:30) 0 0 0 0 0
27-03-2019 19 (15:10) 1.8 (00:00) 10.4 10.83 (17:30) 6.39 (16:40) 0 0 0 0 0
26-03-2019 19.4 (13:30) 4.2 (00:00) 11.8 13.33 (16:00) 7.78 (17:40) 0 0 0 0 0
25-03-2019 22.7 (15:30) 4.4 (00:00) 13.6 8.89 (18:50) 6.11 (18:50) 0 0 0 0 0
24-03-2019 20.5 (15:30) 3.3 (00:00) 11.9 10 (17:10) 6.67 (17:00) 0 0 0 0 0
23-03-2019 15.3 (12:30) 6.7 (00:00) 11 5.83 (20:30) 4.17 (20:20) 0 0 0 0 0
22-03-2019 20.9 (15:20) 4.1 (00:00) 12.5 8.06 (15:40) 5 (17:10) 0 0 0 0 0
21-03-2019 17.9 (14:50) 2.4 (00:00) 10.1 7.78 (18:30) 4.44 (10:10) 0 0 0 0 0

Gráficas

Temp. máximas Temp. mínimas Temp. medias Precipitaciones Rachas de viento máximas Velocidades máximas media en intervalos de 10 minutos

Datos horarios

Fecha y hora oficial Temperatura (ºC) Velocidad del viento (km/h) Dirección del viento Racha (km/h) Dirección de racha Precipitación (mm) Presión (hPa) Tendencia (hPa) Humedad (%)
2019-04-19 23:00:00 10.3 9 Oeste 21 Norte 1.6 -- -- 93
2019-04-19 22:00:00 11 6 Noroeste 21 Oeste 0 -- -- 93
2019-04-19 21:00:00 11 9 Oeste 16 Oeste 0.5 -- -- 94
2019-04-19 20:00:00 11.1 6 Oeste 12 Oeste 1.4 -- -- 94
2019-04-19 19:00:00 11.3 4 Oeste 11 Noroeste 2.3 -- -- 92
2019-04-19 18:00:00 11.4 0 Calma 10 Nordeste 2.2 -- -- 89
2019-04-19 17:00:00 11.7 4 Nordeste 15 Nordeste 0.9 -- -- 89
2019-04-19 16:00:00 11.8 6 Nordeste 17 Norte 1.5 -- -- 89
2019-04-19 15:00:00 12.6 0 Calma 5 Nordeste 0.1 -- -- 87
2019-04-19 14:00:00 12.3 0 Calma 8 Oeste 0.6 -- -- 93
2019-04-19 13:00:00 11.6 0 Calma 6 Oeste 1 -- -- 94
2019-04-19 12:00:00 11 4 Oeste 8 Oeste 1.5 -- -- 95
2019-04-19 11:00:00 10.7 2 Oeste 6 Oeste 3.4 -- -- 95
2019-04-19 10:00:00 10.4 4 Oeste 8 Noroeste 6.8 -- -- 95
2019-04-19 09:00:00 10.3 4 Oeste 12 Oeste 2.7 -- -- 95
2019-04-19 08:00:00 10.2 6 Oeste 12 Oeste 1.3 -- -- 95
2019-04-19 07:00:00 10.2 0 Calma 9 Oeste 0.4 -- -- 95
2019-04-19 06:00:00 10.1 0 Calma 10 Oeste 0 -- -- 95
2019-04-19 05:00:00 10.3 0 Calma 9 Norte 0 -- -- 93
2019-04-19 04:00:00 10 0 Calma -- -- 0 -- -- 95
2019-04-19 03:00:00 10.3 0 Calma 10 Noroeste 0 -- -- 95
2019-04-19 02:00:00 10.5 0 Calma -- -- 0 -- -- 94
2019-04-19 01:00:00 10.5 0 Calma -- -- 0 -- -- 95
2019-04-19 00:00:00 10.5 0 Calma 6 Oeste 0 -- -- 95
2019-04-18 23:00:00 10 0 Calma -- -- 0 -- -- 94
2019-04-18 22:00:00 10.6 0 Calma 8 Oeste 0 -- -- 92
2019-04-18 21:00:00 12.4 0 Calma 7 Oeste 0 -- -- 88
2019-04-18 20:00:00 12.8 0 Calma 19 Sudoeste 0.1 -- -- 90
2019-04-18 19:00:00 11.5 9 Oeste 35 Oeste 0.7 -- -- 92
2019-04-18 18:00:00 11.7 4 Este 10 Este 0.8 -- -- 92
2019-04-18 17:00:00 11.9 0 Calma 15 Oeste 0.6 -- -- 89
2019-04-18 16:00:00 10.9 4 Noroeste 23 Noroeste 0.8 -- -- 93
2019-04-18 15:00:00 11.2 11 Noroeste 48 Oeste 0 -- -- 89
2019-04-18 14:00:00 15.9 3 Noroeste 13 Norte 0 -- -- 67
2019-04-18 13:00:00 15.6 6 Norte 14 Norte 0 -- -- 68
2019-04-18 12:00:00 14.9 5 Oeste 10 Oeste 0 -- -- 67
2019-04-18 11:00:00 14.7 0 Calma 18 Oeste 0 -- -- 71
2019-04-18 10:00:00 13.8 7 Noroeste 22 Oeste 0 -- -- 72
2019-04-18 09:00:00 14.4 5 Norte 17 Norte 0 -- -- 67
2019-04-18 08:00:00 13.8 5 Noroeste 19 Noroeste 0 -- -- 71
2019-04-18 07:00:00 13 12 Oeste 17 Oeste 0 -- -- 76
2019-04-18 06:00:00 13.2 10 Sudoeste 17 Oeste 0 -- -- 73
2019-04-18 05:00:00 13.7 5 Noroeste 34 Oeste 0 -- -- 73
2019-04-18 04:00:00 14.4 6 Noroeste 30 Nordeste 0 -- -- 70
2019-04-18 03:00:00 14.4 17 Nordeste 34 Nordeste 0 -- -- 71
2019-04-18 02:00:00 13.9 2 Noroeste 13 Norte 0 -- -- 77
2019-04-18 01:00:00 13.9 7 Norte 19 Noroeste 0 -- -- 79
2019-04-18 00:00:00 12.9 7 Oeste 12 Oeste 0 -- -- 84
2019-04-17 23:00:00 13.4 3 Sur 6 Sur 0 -- -- 82
2019-04-17 22:00:00 14.1 4 Sudeste 25 Sudeste 0 -- -- 80
2019-04-17 21:00:00 14.6 20 Sudeste 31 Sur 0 -- -- 75
2019-04-17 20:00:00 15.9 21 Sudeste 37 Sudeste 0 -- -- 65
2019-04-17 19:00:00 17.2 19 Sudeste 37 Sudeste 0 -- -- 60
2019-04-17 18:00:00 18.3 22 Sudeste 35 Sudeste 0 -- -- 52
2019-04-17 17:00:00 20.1 17 Sudeste 32 Sudeste 0 -- -- 46
2019-04-17 16:00:00 20.6 21 Sudeste 37 Sudeste 0 -- -- 47
2019-04-17 15:00:00 20.9 17 Sudeste 34 Sudeste 0 -- -- 47
2019-04-17 14:00:00 19.8 13 Sudeste 35 Sudeste 0 -- -- 52
2019-04-17 13:00:00 18.6 17 Sudeste 27 Sudeste 0 -- -- 55
2019-04-17 12:00:00 17.6 12 Sudeste 22 Sudeste 0 -- -- 62
2019-04-17 11:00:00 15.6 9 Sudeste 19 Sudeste 0 -- -- 68
2019-04-17 10:00:00 14.1 8 Sudeste 13 Sudeste 0 -- -- 80
2019-04-17 09:00:00 13.6 6 Este 13 Sudeste 0 -- -- 83
2019-04-17 08:00:00 13.1 0 Calma 4 Este 0 -- -- 84
2019-04-17 07:00:00 13.1 0 Calma 5 Este 0 -- -- 85
2019-04-17 06:00:00 13.1 3 Sudeste 6 Este 0 -- -- 85
2019-04-17 05:00:00 13 0 Calma 7 Este 0 -- -- 87
2019-04-17 04:00:00 12.9 0 Calma 14 Sudeste 0 -- -- 87
2019-04-17 03:00:00 13.5 8 Sudeste 19 Sudeste 0 -- -- 84
2019-04-17 02:00:00 13.2 10 Sudeste 19 Sudeste 0 -- -- 88
2019-04-17 01:00:00 13.2 14 Sudeste 21 Sudeste 0 -- -- 84
2019-04-17 00:00:00 13.6 15 Sudeste 26 Sur 0 -- -- 83
2019-04-16 23:00:00 14.1 15 Sudeste 30 Sudeste 0 -- -- 81
2019-04-16 22:00:00 14.7 18 Sudeste 33 Sudeste 0 -- -- 80
2019-04-16 21:00:00 15.7 22 Sudeste 41 Sudeste 0 -- -- 70
2019-04-16 20:00:00 17.4 23 Sudeste 41 Sudeste 0 -- -- 59
2019-04-16 19:00:00 18.5 26 Sudeste 43 Sudeste 0 -- -- 55
2019-04-16 18:00:00 19.8 22 Sudeste 41 Sudeste 0 -- -- 54
2019-04-16 17:00:00 21.1 22 Sudeste 39 Sudeste 0 -- -- 49
2019-04-16 16:00:00 23.3 21 Este 38 Este 0 -- -- 42
2019-04-16 15:00:00 24.3 9 Sudeste 21 Sudeste 0 -- -- 25
2019-04-16 14:00:00 22.5 0 Calma 13 Norte 0 -- -- 33
2019-04-16 13:00:00 21.8 8 Oeste 17 Oeste 0 -- -- 37
2019-04-16 12:00:00 19.3 12 Oeste 20 Oeste 0 -- -- 44
2019-04-16 11:00:00 17.6 8 Noroeste 17 Noroeste 0 -- -- 51
2019-04-16 10:00:00 14.9 6 Sudoeste 14 Oeste 0 -- -- 63
2019-04-16 09:00:00 13.2 3 Oeste 18 Sudoeste 0 -- -- 73
2019-04-16 08:00:00 9.3 10 Oeste 15 Noroeste 0 -- -- 93
2019-04-16 07:00:00 10.2 5 Oeste 12 Oeste 0 -- -- 90
2019-04-16 06:00:00 10.7 6 Oeste 13 Oeste 0 -- -- 90
2019-04-16 05:00:00 11.3 10 Oeste 14 Oeste 0 -- -- 90
2019-04-16 04:00:00 11.6 4 Oeste 7 Oeste 0 -- -- 93
2019-04-16 03:00:00 11.5 0 Calma 3 Este 0 -- -- 93
2019-04-16 02:00:00 11.4 0 Calma -- -- 0 -- -- 92
2019-04-16 01:00:00 13 0 Calma 12 Sudeste 0 -- -- 87
2019-04-16 00:00:00 14.5 6 Sudeste 16 Sudeste 0 -- -- 85
2019-04-15 23:00:00 15.2 14 Sudeste 21 Sudeste 0 -- -- 83
2019-04-15 22:00:00 15.9 14 Sudeste 28 Sudeste 0 -- -- 75
2019-04-15 21:00:00 17.1 16 Sudeste 33 Sudeste 0 -- -- 66
2019-04-15 20:00:00 18.6 19 Sudeste 34 Este 0 -- -- 60
2019-04-15 19:00:00 20.5 18 Sudeste 33 Sudeste 0 -- -- 57
2019-04-15 18:00:00 21.3 21 Sudeste 38 Este 0 -- -- 56
2019-04-15 17:00:00 21.8 22 Sudeste 37 Sudeste 0 -- -- 55
2019-04-15 16:00:00 21.4 19 Sudeste 35 Sudeste 0 -- -- 56
2019-04-15 15:00:00 22.5 19 Sudeste 33 Sudeste 0 -- -- 55
2019-04-15 14:00:00 22.3 17 Sudeste 38 Sudeste 0 -- -- 54
2019-04-15 13:00:00 21.7 23 Sudeste 32 Sudeste 0 -- -- 54
2019-04-15 12:00:00 21.8 10 Sudeste 19 Sudeste 0 -- -- 51
2019-04-15 11:00:00 18.8 0 Calma 13 Oeste 0 -- -- 62
2019-04-15 10:00:00 15.5 9 Oeste 13 Oeste 0 -- -- 68
2019-04-15 09:00:00 14.4 7 Oeste 15 Noroeste 0 -- -- 70
2019-04-15 08:00:00 14.1 14 Oeste 18 Oeste 0 -- -- 68
2019-04-15 07:00:00 14.3 9 Oeste 18 Oeste 0 -- -- 65
2019-04-15 06:00:00 14.8 11 Oeste 14 Oeste 0 -- -- 62
2019-04-15 05:00:00 14.5 9 Oeste 14 Oeste 0 -- -- 62
2019-04-15 04:00:00 15 10 Oeste 14 Oeste 0 -- -- 60
2019-04-15 03:00:00 16.2 7 Oeste 13 Oeste 0 -- -- 56
2019-04-15 02:00:00 15.8 3 Oeste 11 Oeste 0 -- -- 55
2019-04-15 01:00:00 16.2 6 Oeste 8 Oeste 0 -- -- 54
2019-04-15 00:00:00 16 2 Sudeste 12 Sur 0 -- -- 51
2019-04-14 23:00:00 19.2 9 Sudeste 18 Sudeste 0 -- -- 41
2019-04-14 22:00:00 21 10 Sudeste 15 Sudeste 0 -- -- 38
2019-04-14 21:00:00 22.4 7 Este 17 Sudeste 0 -- -- 34
2019-04-14 20:00:00 25.6 11 Sudeste 18 Sudeste 0 -- -- 30
2019-04-14 19:00:00 27.3 9 Sudeste 22 Sudeste 0 -- -- 28
2019-04-14 18:00:00 28.2 5 Sudoeste 17 Sudoeste 0 -- -- 28
2019-04-14 17:00:00 27.9 0 Calma 15 Oeste 0 -- -- 28
2019-04-14 16:00:00 27.4 6 Noroeste 17 Oeste 0 -- -- 29
2019-04-14 15:00:00 25.9 7 Noroeste 23 Norte 0 -- -- 30
2019-04-14 14:00:00 25.2 6 Noroeste 20 Noroeste 0 -- -- 34
2019-04-14 13:00:00 23.5 6 Noroeste 19 Oeste 0 -- -- 39
2019-04-14 12:00:00 21.1 6 Noroeste 15 Noroeste 0 -- -- 41
2019-04-14 11:00:00 17.6 8 Oeste 14 Noroeste 0 -- -- 51
2019-04-14 10:00:00 12.3 5 Oeste 12 Oeste 0 -- -- 69
2019-04-14 09:00:00 9.8 0 Calma 12 Oeste 0 -- -- 76
2019-04-14 08:00:00 8.6 8 Oeste 12 Oeste 0 -- -- 78
2019-04-14 07:00:00 8 8 Oeste 11 Oeste 0 -- -- 79
2019-04-14 06:00:00 8.8 7 Oeste 11 Oeste 0 -- -- 78
2019-04-14 05:00:00 8.8 3 Oeste 10 Oeste 0 -- -- 78
2019-04-14 04:00:00 9.1 2 Noroeste 8 Oeste 0 -- -- 79
2019-04-14 03:00:00 9.3 0 Calma 5 Oeste 0 -- -- 81
2019-04-14 02:00:00 10.4 0 Calma 4 Sudeste 0 -- -- 76
2019-04-14 01:00:00 11.5 0 Calma 4 Sudeste 0 -- -- 74
2019-04-14 00:00:00 11.9 0 Calma 9 Sur 0 -- -- 66
2019-04-13 23:00:00 15.4 7 Sudeste 15 Sudeste 0 -- -- 54
2019-04-13 22:00:00 17 11 Sudeste 18 Sudeste 0 -- -- 47
2019-04-13 21:00:00 18.6 10 Sudeste 27 Sudeste 0 -- -- 42
2019-04-13 20:00:00 21.3 16 Sudeste 27 Este 0 -- -- 35
2019-04-13 19:00:00 25.1 2 Norte 15 Noroeste 0 -- -- 23
2019-04-13 18:00:00 24.9 10 Oeste 23 Noroeste 0 -- -- 24
2019-04-13 17:00:00 25.1 4 Noroeste 27 Oeste 0 -- -- 24
2019-04-13 16:00:00 24.3 9 Oeste 25 Oeste 0 -- -- 23
2019-04-13 15:00:00 23.3 10 Norte 25 Norte 0 -- -- 24
2019-04-13 14:00:00 21.7 8 Oeste 27 Oeste 0 -- -- 29
2019-04-13 13:00:00 20.3 12 Oeste 23 Oeste 0 -- -- 34
2019-04-13 12:00:00 17.5 9 Oeste 16 Noroeste 0 -- -- 42
2019-04-13 11:00:00 14.4 10 Oeste 17 Oeste 0 -- -- 48
2019-04-13 10:00:00 10 4 Oeste 13 Oeste 0 -- -- 66
2019-04-13 09:00:00 7.5 9 Oeste 13 Oeste 0 -- -- 73
2019-04-13 08:00:00 6.3 0 Calma 8 Oeste 0 -- -- 78
2019-04-13 07:00:00 6.6 4 Oeste 11 Noroeste 0 -- -- 79
2019-04-13 06:00:00 6.8 3 Noroeste 10 Oeste 0 -- -- 82
2019-04-13 05:00:00 7.1 0 Calma 9 Oeste 0 -- -- 82
2019-04-13 04:00:00 7.8 0 Calma 6 Oeste 0 -- -- 87
2019-04-13 03:00:00 7.4 0 Calma 5 Este 0 -- -- 85
2019-04-13 02:00:00 9.1 0 Calma 4 Este 0 -- -- 87
2019-04-13 01:00:00 10 0 Calma 5 Sudeste 0 -- -- 81
2019-04-13 00:00:00 11.5 0 Calma 9 Sudeste 0 -- -- 71
2019-04-12 23:00:00 12.8 3 Sudeste 9 Este 0 -- -- 62
2019-04-12 22:00:00 15.6 3 Sudeste 20 Norte 0 -- -- 37
2019-04-12 21:00:00 18.2 12 Norte 29 Noroeste 0 -- -- 33
2019-04-12 20:00:00 19.8 13 Norte 35 Norte 0 -- -- 31
2019-04-12 19:00:00 20.3 17 Norte 35 Norte 0 -- -- 30
2019-04-12 18:00:00 21.1 11 Norte 31 Norte 0 -- -- 30
2019-04-12 17:00:00 20.8 11 Noroeste 32 Norte 0 -- -- 30
2019-04-12 16:00:00 21 8 Noroeste 32 Norte 0 -- -- 30
2019-04-12 15:00:00 19.9 12 Noroeste 34 Noroeste 0 -- -- 33
2019-04-12 14:00:00 19.2 12 Noroeste 38 Norte 0 -- -- 35
2019-04-12 13:00:00 17.2 15 Noroeste 37 Norte 0 -- -- 37
2019-04-12 12:00:00 16 9 Noroeste 27 Norte 0 -- -- 42
2019-04-12 11:00:00 13.8 8 Noroeste 20 Noroeste 0 -- -- 49
2019-04-12 10:00:00 10.8 10 Oeste 17 Oeste 0 -- -- 61
2019-04-12 09:00:00 8.4 10 Oeste 14 Oeste 0 -- -- 66
2019-04-12 08:00:00 8.1 10 Oeste 21 Noroeste 0 -- -- 66
2019-04-12 07:00:00 8.1 9 Oeste 13 Oeste 0 -- -- 65
2019-04-12 06:00:00 8.1 7 Oeste 12 Noroeste 0 -- -- 62
2019-04-12 05:00:00 9.6 8 Oeste 15 Oeste 0 -- -- 56
2019-04-12 04:00:00 10.4 8 Noroeste 20 Oeste 0 -- -- 54
2019-04-12 03:00:00 11.1 8 Oeste 21 Noroeste 0 -- -- 50
2019-04-12 02:00:00 11.1 6 Noroeste 15 Noroeste 0 -- -- 50
2019-04-12 01:00:00 11.4 6 Oeste 12 Oeste 0 -- -- 50
2019-04-12 00:00:00 11.5 2 Noroeste 12 Noroeste 0 -- -- 49
2019-04-11 23:00:00 12.8 5 Oeste 11 Oeste 0 -- -- 44
2019-04-11 22:00:00 14.6 5 Oeste 19 Oeste 0 -- -- 37
2019-04-11 21:00:00 16.5 8 Noroeste 26 Noroeste 0 -- -- 34
2019-04-11 20:00:00 18.6 8 Noroeste 37 Oeste 0 -- -- 33
2019-04-11 19:00:00 19.5 13 Noroeste 32 Noroeste 0 -- -- 30
2019-04-11 18:00:00 19.8 12 Noroeste 35 Noroeste 0 -- -- 31
2019-04-11 17:00:00 19.4 10 Noroeste 32 Noroeste 0 -- -- 34
2019-04-11 16:00:00 19.2 17 Oeste 32 Noroeste 0 -- -- 34
2019-04-11 15:00:00 18.5 17 Noroeste 39 Oeste 0 -- -- 36
2019-04-11 14:00:00 17.5 10 Noroeste 31 Oeste 0 -- -- 41
2019-04-11 13:00:00 15.8 13 Noroeste 34 Oeste 0 -- -- 45
2019-04-11 12:00:00 14.2 10 Noroeste 32 Oeste 0 -- -- 50
2019-04-11 11:00:00 12.6 9 Noroeste 26 Noroeste 0 -- -- 57
2019-04-11 10:00:00 11.1 6 Noroeste 18 Sudoeste 0 -- -- 66
2019-04-11 09:00:00 8.1 7 Oeste 15 Noroeste 0 -- -- 77
2019-04-11 08:00:00 7.2 10 Oeste 18 Oeste 0 -- -- 79
2019-04-11 07:00:00 8 6 Noroeste 21 Oeste 0 -- -- 78
2019-04-11 06:00:00 7.6 7 Oeste 22 Oeste 0 -- -- 80
2019-04-11 05:00:00 8.5 13 Oeste 24 Noroeste 0 -- -- 76
2019-04-11 04:00:00 8.2 4 Noroeste 17 Noroeste 0 -- -- 78
2019-04-11 03:00:00 8.4 8 Noroeste 19 Oeste 0 -- -- 79
2019-04-11 02:00:00 8.2 3 Noroeste 10 Oeste 0 -- -- 82
2019-04-11 01:00:00 8.7 2 Nordeste 20 Oeste 0 -- -- 81
2019-04-11 00:00:00 9.2 9 Oeste 18 Noroeste 0 -- -- 79
2019-04-10 23:00:00 9.3 3 Oeste 16 Oeste 0 -- -- 81
2019-04-10 22:00:00 10.3 3 Noroeste 9 Noroeste 0 -- -- 83
2019-04-10 21:00:00 10.1 5 Sudoeste 13 Oeste 0 -- -- 88
2019-04-10 20:00:00 10.7 8 Oeste 13 Oeste 0.1 -- -- 83
2019-04-10 19:00:00 10.3 3 Sudoeste 27 Noroeste 2.7 -- -- 85
2019-04-10 18:00:00 12.2 22 Norte 40 Norte 0 -- -- 56
2019-04-10 17:00:00 16.1 9 Noroeste 34 Oeste 0 -- -- 42
2019-04-10 16:00:00 17.3 6 Noroeste 35 Norte 0 -- -- 42
2019-04-10 15:00:00 17.5 15 Noroeste 37 Noroeste 0 -- -- 39
2019-04-10 14:00:00 17.5 10 Noroeste 36 Oeste 0 -- -- 41
2019-04-10 13:00:00 16.7 10 Noroeste 27 Oeste 0 -- -- 44
2019-04-10 12:00:00 14.2 11 Noroeste 31 Oeste 0 -- -- 50
2019-04-10 11:00:00 13.3 12 Oeste 21 Oeste 0 -- -- 56
2019-04-10 10:00:00 12.1 6 Oeste 12 Oeste 0 -- -- 65
2019-04-10 09:00:00 9.4 5 Oeste 11 Sudoeste 0 -- -- 73
2019-04-10 08:00:00 6.2 0 Calma 6 Oeste 0 -- -- 82
2019-04-10 07:00:00 8 0 Calma 13 Oeste 0 -- -- 77
2019-04-10 06:00:00 9.2 7 Oeste 17 Oeste 0 -- -- 73
2019-04-10 05:00:00 7.7 5 Oeste 9 Oeste 0 -- -- 81
2019-04-10 04:00:00 7.2 0 Calma 6 Sudoeste 0 -- -- 82
2019-04-10 03:00:00 8.4 6 Oeste 9 Oeste 0 -- -- 79
2019-04-10 02:00:00 8.3 0 Calma 8 Oeste 0 -- -- 78
2019-04-10 01:00:00 9.8 4 Oeste 12 Oeste 0 -- -- 72
2019-04-10 00:00:00 11.1 5 Oeste 22 Oeste 0 -- -- 66
2019-04-09 23:00:00 11.6 6 Oeste 18 Oeste 0 -- -- 62
2019-04-09 22:00:00 12.7 8 Oeste 18 Noroeste 0 -- -- 55
2019-04-09 21:00:00 13.7 6 Noroeste 22 Noroeste 0 -- -- 50
2019-04-09 20:00:00 15.7 8 Noroeste 31 Oeste 0 -- -- 42
2019-04-09 19:00:00 16.4 22 Oeste 42 Oeste 0 -- -- 41
2019-04-09 18:00:00 17.2 15 Oeste 40 Oeste 0 -- -- 36
2019-04-09 17:00:00 18.2 18 Oeste 35 Oeste 0 -- -- 31
2019-04-09 16:00:00 18.9 18 Oeste 37 Noroeste 0 -- -- 31
2019-04-09 15:00:00 18 22 Oeste 40 Oeste 0 -- -- 34
2019-04-09 14:00:00 17.8 21 Oeste 39 Oeste 0 -- -- 36
2019-04-09 13:00:00 16.7 17 Oeste 32 Noroeste 0 -- -- 39
2019-04-09 12:00:00 15.6 13 Oeste 26 Oeste 0.1 -- -- 46
2019-04-09 11:00:00 13.5 10 Oeste 21 Oeste 0 -- -- 53
2019-04-09 10:00:00 11.9 5 Noroeste 16 Sudoeste 0 -- -- 66
2019-04-09 09:00:00 8.9 8 Oeste 13 Oeste 0 -- -- 82
2019-04-09 08:00:00 7.8 6 Oeste 11 Noroeste 0 -- -- 90
2019-04-09 07:00:00 8.4 4 Oeste 8 Oeste 0 -- -- 89
2019-04-09 06:00:00 9.1 7 Oeste 18 Noroeste 0 -- -- 85
2019-04-09 05:00:00 10.1 7 Oeste 18 Oeste 0 -- -- 83
2019-04-09 04:00:00 10.1 5 Oeste 12 Noroeste 0 -- -- 88
2019-04-09 03:00:00 10.4 4 Noroeste 20 Oeste 0.4 -- -- 91
2019-04-09 02:00:00 11 14 Noroeste 42 Noroeste 0.4 -- -- 84
2019-04-09 01:00:00 13.8 3 Oeste 10 Oeste 0 -- -- 67
2019-04-09 00:00:00 13.3 3 Oeste 5 Oeste 0 -- -- 67
2019-04-08 23:00:00 15.1 3 Oeste 13 Oeste 0 -- -- 58
2019-04-08 22:00:00 16.2 6 Oeste 14 Oeste 0 -- -- 54
2019-04-08 21:00:00 16.8 4 Noroeste 13 Noroeste 0 -- -- 52
2019-04-08 20:00:00 18 3 Noroeste 17 Noroeste 0 -- -- 51
2019-04-08 19:00:00 18.9 4 Norte 22 Sudoeste 0 -- -- 50
2019-04-08 18:00:00 19.3 11 Oeste 21 Oeste 0 -- -- 45
2019-04-08 17:00:00 20.4 5 Noroeste 19 Oeste 0 -- -- 42
2019-04-08 16:00:00 19.3 9 Oeste 32 Oeste 0 -- -- 45
2019-04-08 15:00:00 19.4 10 Oeste 22 Sudoeste 0 -- -- 47
2019-04-08 14:00:00 17.7 9 Oeste 15 Oeste 0 -- -- 52
2019-04-08 13:00:00 16.2 6 Oeste 12 Noroeste 0 -- -- 60
2019-04-08 12:00:00 13.4 7 Oeste 12 Oeste 0 -- -- 69
2019-04-08 11:00:00 12.1 4 Oeste 10 Oeste 0 -- -- 74
2019-04-08 10:00:00 10.2 8 Oeste 13 Oeste 0 -- -- 83
2019-04-08 09:00:00 9.4 5 Oeste 9 Oeste 0 -- -- 88
2019-04-08 08:00:00 9.3 2 Oeste 11 Oeste 0 -- -- 89
2019-04-08 07:00:00 9.8 6 Oeste 10 Oeste 0 -- -- 87
2019-04-08 06:00:00 10 0 Calma 6 Oeste 0 -- -- 83
2019-04-08 05:00:00 10.7 0 Calma 5 Este 0 -- -- 81
2019-04-08 04:00:00 11.2 0 Calma -- -- 0 -- -- 77
2019-04-08 03:00:00 11.2 0 Calma 6 Oeste 0 -- -- 72
2019-04-08 02:00:00 11.8 2 Oeste 6 Oeste 0 -- -- 67
2019-04-08 01:00:00 11.4 0 Calma -- -- 0 -- -- 73
2019-04-08 00:00:00 12.9 0 Calma 6 Noroeste 0 -- -- 63
2019-04-07 23:00:00 13.5 5 Oeste 16 Oeste 0 -- -- 56
2019-04-07 22:00:00 13.6 7 Oeste 19 Noroeste 0 -- -- 54
2019-04-07 21:00:00 14.8 8 Noroeste 22 Noroeste 0 -- -- 46
2019-04-07 20:00:00 15.5 8 Noroeste 33 Oeste 0 -- -- 45
2019-04-07 19:00:00 16.3 14 Oeste 29 Oeste 0 -- -- 40
2019-04-07 18:00:00 17 14 Oeste 35 Oeste 0 -- -- 39
2019-04-07 17:00:00 17.5 19 Oeste 39 Noroeste 0 -- -- 36
2019-04-07 16:00:00 16.7 28 Oeste 49 Oeste 0 -- -- 40
2019-04-07 15:00:00 15.1 15 Noroeste 39 Oeste 0 -- -- 46
2019-04-07 14:00:00 14.4 21 Oeste 35 Oeste 0 -- -- 51
2019-04-07 13:00:00 13.9 13 Oeste 33 Noroeste 0 -- -- 60
2019-04-07 12:00:00 11 13 Noroeste 34 Noroeste 0 -- -- 66
2019-04-07 11:00:00 8.5 11 Oeste 28 Oeste 0.6 -- -- 87
2019-04-07 10:00:00 7 8 Noroeste 23 Oeste 1 -- -- 90
2019-04-07 09:00:00 6.7 5 Oeste 14 Oeste 1.4 -- -- 93
2019-04-07 08:00:00 6.9 2 Noroeste 16 Oeste 1.3 -- -- 90
2019-04-07 07:00:00 7.7 0 Calma 15 Oeste 0.2 -- -- 81
2019-04-07 06:00:00 8.2 10 Oeste 18 Oeste 0 -- -- 68
2019-04-07 05:00:00 6.8 5 Oeste 11 Oeste 0 -- -- 71
2019-04-07 04:00:00 6.9 6 Oeste 16 Oeste 0 -- -- 67
2019-04-07 03:00:00 7.4 9 Oeste 15 Oeste 0 -- -- 65
2019-04-07 02:00:00 7.7 5 Oeste 17 Oeste 0 -- -- 62
2019-04-07 01:00:00 8.6 9 Noroeste 27 Oeste 0 -- -- 60
2019-04-07 00:00:00 8.7 8 Oeste 16 Oeste 0 -- -- 60
2019-04-06 23:00:00 8.9 9 Oeste 17 Oeste 0 -- -- 59
2019-04-06 22:00:00 10.1 13 Oeste 27 Oeste 0 -- -- 53
2019-04-06 21:00:00 11.4 17 Oeste 34 Oeste 0 -- -- 50
2019-04-06 20:00:00 12.5 17 Oeste 28 Oeste 0 -- -- 47
2019-04-06 19:00:00 13 16 Noroeste 36 Noroeste 0 -- -- 48
2019-04-06 18:00:00 12.3 14 Noroeste 41 Noroeste 0 -- -- 52
2019-04-06 17:00:00 14.9 13 Noroeste 26 Oeste 0 -- -- 41
2019-04-06 16:00:00 14.7 0 Calma 14 Sudoeste 0 -- -- 45
2019-04-06 15:00:00 13.7 2 Sur 12 Sur 0.3 -- -- 52
2019-04-06 14:00:00 14.8 7 Este 18 Este 0 -- -- 44
2019-04-06 13:00:00 14.5 12 Este 25 Sudeste 0 -- -- 45
2019-04-06 12:00:00 13 14 Este 24 Este 0 -- -- 51
2019-04-06 11:00:00 11 3 Sudeste 13 Sudeste 0 -- -- 55
2019-04-06 10:00:00 9.1 2 Oeste 10 Sudoeste 0 -- -- 66
2019-04-06 09:00:00 6 5 Oeste 10 Oeste 0 -- -- 79
2019-04-06 08:00:00 3.8 0 Calma 16 Oeste 0 -- -- 85
2019-04-06 07:00:00 4.1 0 Calma 7 Oeste 0 -- -- 88
2019-04-06 06:00:00 4.9 6 Oeste 9 Oeste 0 -- -- 86
2019-04-06 05:00:00 5.7 3 Oeste 9 Oeste 0 -- -- 84
2019-04-06 04:00:00 6.4 5 Oeste 9 Oeste 0 -- -- 82
2019-04-06 03:00:00 5.4 0 Calma 4 Este 0 -- -- 87
2019-04-06 02:00:00 5.5 0 Calma 4 Sudoeste 0 -- -- 84
2019-04-06 01:00:00 5.2 0 Calma 6 Sur 0 -- -- 87
2019-04-06 00:00:00 6 0 Calma 15 Oeste 0 -- -- 83
2019-04-05 23:00:00 7.3 10 Oeste 17 Oeste 0 -- -- 75
2019-04-05 22:00:00 7.4 0 Calma 25 Oeste 0.1 -- -- 82
2019-04-05 21:00:00 8.5 20 Oeste 46 Noroeste 1.5 -- -- 78
2019-04-05 20:00:00 11.2 0 Calma 9 Sudeste 0 -- -- 81
2019-04-05 19:00:00 11.1 2 Este 9 Este 0 -- -- 82
2019-04-05 18:00:00 10.9 4 Este 11 Este 0 -- -- 88
2019-04-05 17:00:00 10.6 0 Calma 24 Oeste 0.9 -- -- 88
2019-04-05 16:00:00 11 9 Oeste -- -- -- -- -- 82
2019-04-05 15:00:00 16.6 12 Sudeste 35 Sudeste 0 -- -- 40
2019-04-05 14:00:00 18.1 20 Sudeste 34 Sudeste 0 -- -- 39
2019-04-05 13:00:00 18 10 Sudeste 25 Este 0 -- -- 42
2019-04-05 12:00:00 15.2 4 Norte 17 Este 0 -- -- 46
2019-04-05 11:00:00 12.3 2 Noroeste 8 Noroeste 0 -- -- 64
2019-04-05 10:00:00 9.3 6 Oeste 10 Oeste 0 -- -- 83
2019-04-05 09:00:00 7.9 0 Calma 10 Oeste 0 -- -- 87
2019-04-05 08:00:00 7.1 6 Oeste 10 Oeste 0 -- -- 90
2019-04-05 07:00:00 7.2 0 Calma 7 Noroeste 0 -- -- 89
2019-04-05 06:00:00 7.6 0 Calma 10 Sudeste 0 -- -- 84
2019-04-05 05:00:00 9.8 8 Sudeste 13 Sudeste 0 -- -- 81
2019-04-05 04:00:00 10.2 9 Sudeste 19 Sudeste 0 -- -- 77
2019-04-05 03:00:00 11 12 Sudeste 23 Sudeste 0 -- -- 73
2019-04-05 02:00:00 11.5 14 Sudeste 26 Sudeste 0 -- -- 69
2019-04-05 01:00:00 11.7 15 Sudeste 26 Sudeste 0 -- -- 68
2019-04-05 00:00:00 11.8 12 Sudeste 29 Sudeste 0 -- -- 67
2019-04-04 23:00:00 11.8 16 Sudeste 29 Sudeste 0 -- -- 67
2019-04-04 22:00:00 12.1 15 Sudeste 28 Sur 0 -- -- 62
2019-04-04 21:00:00 12.9 13 Sudeste 35 Sudeste 0 -- -- 58
2019-04-04 20:00:00 14.1 16 Sudeste 39 Sudeste 0 -- -- 55
2019-04-04 19:00:00 16.2 24 Sudeste 42 Sudeste 0 -- -- 45
2019-04-04 18:00:00 18.3 15 Sudeste 25 Sudeste 0 -- -- 33
2019-04-04 17:00:00 18.8 9 Sudeste 19 Sudeste 0 -- -- 30
2019-04-04 16:00:00 17.7 3 Norte 19 Sudoeste 0 -- -- 30
2019-04-04 15:00:00 16.7 5 Nordeste 17 Sudoeste 0 -- -- 31
2019-04-04 14:00:00 16 6 Oeste 18 Oeste 0 -- -- 31
2019-04-04 13:00:00 15.7 6 Noroeste 20 Oeste 0 -- -- 34
2019-04-04 12:00:00 14.5 5 Noroeste 21 Oeste 0 -- -- 40
2019-04-04 11:00:00 12.1 11 Oeste 17 Noroeste 0 -- -- 50
2019-04-04 10:00:00 9.7 11 Oeste 19 Oeste 0 -- -- 56
2019-04-04 09:00:00 8 10 Oeste 13 Oeste 0 -- -- 60
2019-04-04 08:00:00 8.3 4 Noroeste 14 Oeste 0 -- -- 57
2019-04-04 07:00:00 8.2 8 Noroeste 18 Oeste 0 -- -- 57
2019-04-04 06:00:00 9.1 0 Calma 9 Oeste 0 -- -- 56
2019-04-04 05:00:00 9.6 0 Calma 8 Sudoeste 0 -- -- 55
2019-04-04 04:00:00 11.5 8 Oeste 14 Oeste 0 -- -- 47
2019-04-04 03:00:00 11.9 4 Oeste 15 Oeste 0 -- -- 47
2019-04-04 02:00:00 13.4 9 Oeste 19 Noroeste 0 -- -- 44
2019-04-04 01:00:00 15.4 8 Noroeste 26 Noroeste 0 -- -- 40
2019-04-04 00:00:00 16.8 8 Noroeste 20 Norte 0 -- -- 40
2019-04-03 23:00:00 16 8 Oeste 12 Oeste 0 -- -- 42
2019-04-03 22:00:00 16.3 3 Sur 13 Oeste 0 -- -- 41
2019-04-03 21:00:00 19.3 6 Oeste 26 Oeste 0 -- -- 34
2019-04-03 20:00:00 22 5 Sur 16 Sudoeste 0 -- -- 36
2019-04-03 19:00:00 21.9 7 Sudeste 19 Sudeste 0 -- -- 35
2019-04-03 18:00:00 22.4 12 Sudeste 29 Sudeste 0 -- -- 35
2019-04-03 17:00:00 23 15 Sudeste 23 Este 0 -- -- 33
2019-04-03 16:00:00 23.9 4 Este 18 Sudeste 0 -- -- 33
2019-04-03 15:00:00 22.8 9 Sudeste 24 Sur 0 -- -- 33
2019-04-03 14:00:00 21.9 4 Norte 17 Oeste 0 -- -- 35
2019-04-03 13:00:00 20 8 Oeste 15 Noroeste 0 -- -- 41
2019-04-03 12:00:00 17 6 Oeste 15 Oeste 0 -- -- 52
2019-04-03 11:00:00 13.5 10 Oeste 15 Oeste 0 -- -- 68
2019-04-03 10:00:00 10.5 10 Oeste 17 Oeste 0 -- -- 82
2019-04-03 09:00:00 8.4 0 Calma 10 Oeste 0 -- -- 91
2019-04-03 08:00:00 8.2 7 Oeste 9 Oeste 0 -- -- 93
2019-04-03 07:00:00 8.6 4 Oeste 9 Oeste 0 -- -- 91
2019-04-03 06:00:00 8.9 0 Calma 7 Oeste 0 -- -- 90
2019-04-03 05:00:00 10 6 Oeste 8 Oeste 0 -- -- 87
2019-04-03 04:00:00 10.8 3 Oeste 15 Oeste 0 -- -- 84
2019-04-03 03:00:00 11.4 2 Oeste 14 Oeste 0 -- -- 82
2019-04-03 02:00:00 11.4 0 Calma -- -- 0 -- -- 78
2019-04-03 01:00:00 12.9 0 Calma 11 Oeste 0 -- -- 72
2019-04-03 00:00:00 14.6 3 Oeste 13 Nordeste 0 -- -- 61
2019-04-02 23:00:00 15.9 10 Nordeste 18 Norte 0 -- -- 56
2019-04-02 22:00:00 16.4 0 Calma 11 Este 0 -- -- 66
2019-04-02 21:00:00 17.2 0 Calma -- -- 0 -- -- 52
2019-04-02 20:00:00 20.9 0 Calma 11 Noroeste 0 -- -- 37
2019-04-02 19:00:00 21.6 7 Oeste 16 Sudoeste 0 -- -- 36
2019-04-02 18:00:00 21.2 4 Oeste 14 Sudoeste 0 -- -- 39
2019-04-02 17:00:00 21 0 Calma 17 Oeste 0 -- -- 40
2019-04-02 16:00:00 20.6 10 Oeste 18 Oeste 0 -- -- 42
2019-04-02 15:00:00 20.5 5 Oeste 15 Sudoeste 0 -- -- 41
2019-04-02 14:00:00 18.9 5 Oeste 17 Noroeste 0.1 -- -- 52
2019-04-02 13:00:00 17.1 7 Oeste 15 Oeste 0 -- -- 63
2019-04-02 12:00:00 15.1 6 Oeste 14 Oeste 0 -- -- 74
2019-04-02 11:00:00 12.8 9 Oeste 14 Oeste 0 -- -- 85
2019-04-02 10:00:00 11.1 6 Oeste 10 Oeste 0 -- -- 94
2019-04-02 09:00:00 10.7 7 Oeste 9 Oeste 0 -- -- 95
2019-04-02 08:00:00 10.5 0 Calma 7 Oeste 0 -- -- 95
2019-04-02 07:00:00 11.7 0 Calma 0 Calma 0 -- -- 93
2019-04-02 06:00:00 11.7 2 Oeste 5 Oeste 0 -- -- 93
2019-04-02 05:00:00 11.8 0 Calma 4 Sudeste 0 -- -- 93
2019-04-02 04:00:00 12.1 0 Calma 8 Este 0 -- -- 93
2019-04-02 03:00:00 12 4 Sudeste 8 Sudeste 0 -- -- 93
2019-04-02 02:00:00 12.2 4 Sudeste 14 Sudeste 0.5 -- -- 92
2019-04-02 01:00:00 12.4 6 Sudeste 13 Sudeste 0 -- -- 89
2019-04-02 00:00:00 12.5 8 Sudeste 14 Sudeste 0 -- -- 89
2019-04-01 23:00:00 12.5 10 Sudeste 18 Sudeste 0 -- -- 90
2019-04-01 22:00:00 12.1 10 Sudeste 28 Sudeste 2 -- -- 90
2019-04-01 21:00:00 13.2 18 Sudeste 32 Este 0 -- -- 80
2019-04-01 20:00:00 14.8 18 Sudeste 30 Sudeste 0 -- -- 76
2019-04-01 19:00:00 15.6 19 Sudeste 31 Sudeste 0 -- -- 72
2019-04-01 18:00:00 17.6 16 Sudeste 31 Sudeste 0 -- -- 61
2019-04-01 17:00:00 18.5 17 Sudeste 26 Sudeste 0 -- -- 55
2019-04-01 16:00:00 18.7 11 Sudeste 25 Sudeste 0 -- -- 52
2019-04-01 15:00:00 18.2 12 Este 23 Este 0 -- -- 54
2019-04-01 14:00:00 17.7 4 Este 15 Este 0 -- -- 55
2019-04-01 13:00:00 16.5 4 Norte 14 Nordeste 0 -- -- 60
2019-04-01 12:00:00 14.8 3 Nordeste 14 Oeste 0 -- -- 69
2019-04-01 11:00:00 13.1 8 Noroeste 14 Noroeste 0 -- -- 81
2019-04-01 10:00:00 12.1 8 Oeste 13 Noroeste 0 -- -- 87
2019-04-01 09:00:00 11.1 0 Calma 6 Oeste 0 -- -- 90
2019-04-01 08:00:00 11.1 2 Oeste 4 Oeste 0 -- -- 90
2019-04-01 07:00:00 11.3 0 Calma -- -- 0 -- -- 88
2019-04-01 06:00:00 11.4 0 Calma 4 Norte 0 -- -- 85
2019-04-01 05:00:00 11.2 0 Calma 8 Noroeste 0 -- -- 90
2019-04-01 04:00:00 11.3 3 Noroeste 8 Noroeste 0 -- -- 89
2019-04-01 03:00:00 11.3 2 Noroeste 10 Oeste 0 -- -- 90
2019-04-01 02:00:00 11.5 4 Noroeste 15 Oeste 0 -- -- 88
2019-04-01 01:00:00 11.2 5 Noroeste 13 Oeste 0.1 -- -- 90
2019-04-01 00:00:00 11.6 3 Noroeste 11 Oeste 0 -- -- 88
2019-03-31 23:00:00 11.5 4 Noroeste 9 Oeste 0 -- -- 91
2019-03-31 22:00:00 11.5 0 Calma 11 Oeste 0 -- -- 93
2019-03-31 21:00:00 11.6 6 Noroeste 9 Oeste 0 -- -- 90
2019-03-31 20:00:00 11.6 0 Calma 8 Oeste 0.1 -- -- 92
2019-03-31 19:00:00 11.6 5 Oeste 10 Oeste 0.4 -- -- 93
2019-03-31 18:00:00 11.1 6 Oeste 11 Noroeste 1.9 -- -- 94
2019-03-31 17:00:00 10.6 4 Noroeste 16 Oeste 0.9 -- -- 94
2019-03-31 16:00:00 10.3 6 Oeste 16 Oeste 0.1 -- -- 94
2019-03-31 15:00:00 9.9 11 Oeste -- -- 1.1 -- -- 94
2019-03-31 14:00:00 9.3 11 Oeste 17 Oeste 1.8 -- -- 94
2019-03-31 13:00:00 9.2 5 Noroeste 17 Oeste 0.8 -- -- 95
2019-03-31 12:00:00 8.8 10 Oeste -- -- -- -- -- 95
2019-03-31 11:00:00 -- -- -- -- -- -- -- -- --
2019-03-31 10:00:00 -- -- -- -- -- -- -- -- --
2019-03-31 09:00:00 -- -- -- -- -- -- -- -- --
2019-03-31 08:00:00 -- -- -- -- -- -- -- -- --
2019-03-31 07:00:00 -- -- -- -- -- -- -- -- --
2019-03-31 06:00:00 9.4 5 Norte 18 Norte 1.1 -- -- 91
2019-03-31 05:00:00 10 6 Norte 11 Nordeste 1 -- -- 92
2019-03-31 03:00:00 11.1 0 Calma 4 Nordeste 0 -- -- 85
2019-03-31 01:00:00 11 3 Sudeste 9 Sudeste 0 -- -- 85
2019-03-31 00:00:00 11.1 0 Calma 8 Sudeste 0 -- -- 84
2019-03-30 23:00:00 11.1 8 Sudeste 12 Sudeste 0 -- -- 84
2019-03-30 22:00:00 11.2 8 Sudeste 19 Sudeste 0 -- -- 81
2019-03-30 21:00:00 11.5 10 Sudeste 22 Sudeste 0 -- -- 79
2019-03-30 20:00:00 12.1 16 Sudeste 29 Sudeste 0.3 -- -- 79
2019-03-30 19:00:00 13.8 21 Sudeste 32 Sudeste 0 -- -- 66
2019-03-30 18:00:00 15.2 22 Sudeste 36 Sudeste 0 -- -- 56
2019-03-30 17:00:00 17.3 21 Sudeste 35 Sudeste 0 -- -- 50
2019-03-30 16:00:00 17.8 22 Sudeste 34 Este 0 -- -- 49
2019-03-30 15:00:00 17.7 19 Sudeste 34 Este 0 -- -- 46
2019-03-30 14:00:00 17.3 18 Sudeste 28 Sudeste 0 -- -- 45
2019-03-30 13:00:00 16.5 13 Sudeste 24 Sudeste 0 -- -- 52
2019-03-30 12:00:00 13.7 2 Nordeste 12 Este 0 -- -- 61
2019-03-30 11:00:00 11.8 7 Oeste 12 Oeste 0 -- -- 69
2019-03-30 10:00:00 8 9 Oeste 13 Oeste 0 -- -- 79
2019-03-30 09:00:00 6 6 Oeste 12 Oeste 0 -- -- 84
2019-03-30 08:00:00 4.4 6 Noroeste 11 Oeste 0 -- -- 89
2019-03-30 07:00:00 4.5 8 Oeste 13 Oeste 0 -- -- 89
2019-03-30 06:00:00 3.9 10 Oeste 15 Oeste 0 -- -- 91
2019-03-30 05:00:00 4.1 6 Oeste 11 Oeste 0 -- -- 91
2019-03-30 04:00:00 4.7 4 Oeste 12 Oeste 0 -- -- 89
2019-03-30 03:00:00 5.3 2 Oeste 8 Oeste 0 -- -- 88
2019-03-30 02:00:00 5 0 Calma 7 Norte 0 -- -- 85
2019-03-30 01:00:00 7.1 0 Calma 6 Nordeste 0 -- -- 82
2019-03-30 00:00:00 7.2 0 Calma 6 Este 0 -- -- 84
2019-03-29 23:00:00 8.2 0 Calma 14 Sudeste 0 -- -- 81
2019-03-29 22:00:00 9.4 4 Sudeste 17 Sudeste 0 -- -- 76
2019-03-29 21:00:00 10.8 8 Sudeste 22 Sudeste 0 -- -- 68
2019-03-29 20:00:00 12 15 Sudeste 30 Sudeste 0 -- -- 61
2019-03-29 19:00:00 13.5 18 Sudeste 34 Sudeste 0 -- -- 54
2019-03-29 18:00:00 15 21 Sudeste 35 Sudeste 0 -- -- 51
2019-03-29 17:00:00 15.7 20 Sudeste 32 Sudeste 0 -- -- 49
2019-03-29 16:00:00 16.6 18 Sudeste 32 Sudeste 0 -- -- 46
2019-03-29 15:00:00 16.1 18 Este 31 Sudeste 0 -- -- 49
2019-03-29 14:00:00 17.1 19 Sudeste 30 Sudeste 0 -- -- 49
2019-03-29 13:00:00 15.5 16 Sudeste 28 Sudeste 0 -- -- 52
2019-03-29 12:00:00 14.3 7 Sudeste 15 Este 0 -- -- 57
2019-03-29 11:00:00 11.3 5 Oeste 12 Oeste 0 -- -- 62
2019-03-29 10:00:00 8.4 10 Oeste 14 Oeste 0 -- -- 74
2019-03-29 09:00:00 5.1 8 Oeste 15 Oeste 0 -- -- 83
2019-03-29 08:00:00 3 10 Oeste 14 Oeste 0 -- -- 90
2019-03-29 07:00:00 2.9 7 Oeste 10 Oeste 0 -- -- 88
2019-03-29 06:00:00 3.3 0 Calma 7 Oeste 0 -- -- 88
2019-03-29 05:00:00 4.8 7 Oeste 11 Oeste 0 -- -- 88
2019-03-29 04:00:00 5 8 Oeste 12 Oeste 0 -- -- 90
2019-03-29 03:00:00 5.2 3 Noroeste 8 Oeste 0 -- -- 89
2019-03-29 02:00:00 5.8 0 Calma 8 Este 0 -- -- 83
2019-03-29 01:00:00 5.9 0 Calma 6 Sudeste 0 -- -- 93
2019-03-29 00:00:00 8 0 Calma 19 Sur 0 -- -- 88
2019-03-28 23:00:00 10.2 10 Sudeste 22 Sudeste 0 -- -- 85
2019-03-28 22:00:00 10.6 12 Sudeste 28 Sudeste 0 -- -- 79
2019-03-28 21:00:00 11.4 16 Sudeste 26 Sudeste 0 -- -- 73
2019-03-28 20:00:00 12.7 16 Sudeste 30 Este 0 -- -- 50
2019-03-28 19:00:00 14.6 20 Sudeste 33 Sudeste 0 -- -- 40
2019-03-28 18:00:00 16.1 19 Sudeste 34 Sudeste 0 -- -- 35
2019-03-28 17:00:00 17.3 18 Este 37 Sudeste 0 -- -- 34
2019-03-28 16:00:00 18.3 20 Sudeste 37 Sudeste 0 -- -- 26
2019-03-28 15:00:00 18.2 18 Sudeste 36 Sudeste 0 -- -- 26
2019-03-28 14:00:00 18.1 15 Sudeste 31 Sudeste 0 -- -- 30
2019-03-28 13:00:00 17.2 10 Sudeste 23 Sudeste 0 -- -- 33
2019-03-28 12:00:00 15.5 4 Oeste 15 Oeste 0 -- -- 41
2019-03-28 11:00:00 11.7 10 Oeste 19 Oeste 0 -- -- 53
2019-03-28 10:00:00 8 14 Oeste 19 Oeste 0 -- -- 61
2019-03-28 09:00:00 4.5 12 Oeste 16 Oeste 0 -- -- 71
2019-03-28 08:00:00 2 10 Oeste 19 Oeste 0 -- -- 77
2019-03-28 07:00:00 1.9 13 Oeste 17 Oeste 0 -- -- 76
2019-03-28 06:00:00 2.5 10 Oeste 16 Oeste 0 -- -- 73
2019-03-28 05:00:00 2.5 8 Oeste 11 Oeste 0 -- -- 77
2019-03-28 04:00:00 3.4 4 Oeste 10 Oeste 0 -- -- 76
2019-03-28 03:00:00 4.2 8 Oeste 12 Oeste 0 -- -- 72
2019-03-28 02:00:00 4.8 5 Oeste 7 Noroeste 0 -- -- 72
2019-03-28 01:00:00 4.6 0 Calma 4 Sudeste 0 -- -- 72
2019-03-28 00:00:00 6.2 0 Calma 5 Este 0 -- -- 68
2019-03-27 23:00:00 7.7 2 Este 9 Sudeste 0 -- -- 58
2019-03-27 22:00:00 10 3 Este 21 Sudeste 0 -- -- 46
2019-03-27 21:00:00 11.7 14 Sudeste 25 Sudeste 0 -- -- 42
2019-03-27 20:00:00 12.6 17 Sudeste 31 Sudeste 0 -- -- 40
2019-03-27 19:00:00 14.4 21 Sudeste 32 Sudeste 0 -- -- 40
2019-03-27 18:00:00 15.9 21 Sudeste 39 Este 0 -- -- 40
2019-03-27 17:00:00 16.8 20 Sudeste 36 Sudeste 0 -- -- 39
2019-03-27 16:00:00 18.1 20 Sudeste 33 Este 0 -- -- 34
2019-03-27 15:00:00 18.2 13 Sudeste 28 Sudeste 0 -- -- 33
2019-03-27 14:00:00 17.8 9 Sudeste 22 Sur 0 -- -- 36
2019-03-27 13:00:00 16.3 4 Este 11 Oeste 0 -- -- 39
2019-03-27 12:00:00 14.4 6 Oeste 16 Oeste 0 -- -- 42
2019-03-27 11:00:00 11.7 10 Oeste 18 Oeste 0 -- -- 56
2019-03-27 10:00:00 8.4 14 Oeste 18 Oeste 0 -- -- 73
2019-03-27 09:00:00 5.3 10 Oeste 16 Oeste 0 -- -- 85
2019-03-27 08:00:00 3.3 7 Oeste 12 Noroeste 0 -- -- 91
2019-03-27 07:00:00 2.6 4 Oeste 10 Oeste 0 -- -- 93
2019-03-27 06:00:00 4 8 Oeste 14 Oeste 0 -- -- 88
2019-03-27 05:00:00 4.4 9 Oeste 12 Oeste 0 -- -- 89
2019-03-27 04:00:00 4.8 3 Oeste 9 Oeste 0 -- -- 88
2019-03-27 03:00:00 5.1 0 Calma 9 Oeste 0 -- -- 88
2019-03-27 02:00:00 6.7 5 Oeste 11 Oeste 0 -- -- 83
2019-03-27 01:00:00 7.4 0 Calma 12 Norte 0 -- -- 79
2019-03-27 00:00:00 8.1 0 Calma 8 Nordeste 0 -- -- 78
2019-03-26 23:00:00 8.7 0 Calma 15 Sudeste 0 -- -- 73
2019-03-26 22:00:00 10.7 7 Sudeste 21 Sudeste 0 -- -- 71
2019-03-26 21:00:00 11.7 16 Sudeste 36 Sudeste 0 -- -- 68
2019-03-26 20:00:00 12.5 23 Sudeste 36 Sudeste 0 -- -- 67
2019-03-26 19:00:00 14 23 Sudeste 40 Sudeste 0 -- -- 66
2019-03-26 18:00:00 14.9 26 Sudeste 45 Sudeste 0 -- -- 63
2019-03-26 17:00:00 16.3 26 Sudeste 44 Sudeste 0 -- -- 57
2019-03-26 16:00:00 17.5 28 Sudeste 48 Sudeste 0 -- -- 54
2019-03-26 15:00:00 17.7 27 Sudeste 46 Sudeste 0 -- -- 52
2019-03-26 14:00:00 18.6 23 Sudeste 35 Este 0 -- -- 52
2019-03-26 13:00:00 18.9 13 Sudeste 28 Este 0 -- -- 47
2019-03-26 12:00:00 17.8 12 Sudeste 24 Este 0 -- -- 41
2019-03-26 11:00:00 14.8 11 Oeste 17 Oeste 0 -- -- 48
2019-03-26 10:00:00 10.6 9 Oeste 20 Oeste 0 -- -- 57
2019-03-26 09:00:00 7.1 10 Oeste 16 Oeste 0 -- -- 65
2019-03-26 08:00:00 5.3 11 Oeste 15 Oeste 0 -- -- 69
2019-03-26 07:00:00 4.9 12 Oeste 16 Oeste 0 -- -- 70
2019-03-26 06:00:00 5.2 11 Oeste 18 Oeste 0 -- -- 68
2019-03-26 05:00:00 5 8 Oeste 14 Oeste 0 -- -- 69
2019-03-26 04:00:00 5.4 8 Oeste 13 Oeste 0 -- -- 68
2019-03-26 03:00:00 6.4 9 Oeste 13 Oeste 0 -- -- 65
2019-03-26 02:00:00 6.5 0 Calma 6 Nordeste 0 -- -- 66
2019-03-26 01:00:00 8.3 2 Este 6 Este 0 -- -- 60
2019-03-26 00:00:00 8.9 0 Calma 5 Este 0 -- -- 58
2019-03-25 23:00:00 10.3 0 Calma 6 Este 0 -- -- 53
2019-03-25 22:00:00 12.8 0 Calma 12 Sur 0 -- -- 45
2019-03-25 21:00:00 14.8 9 Sudeste 27 Sudeste 0 -- -- 39
2019-03-25 20:00:00 16.1 14 Sudeste 31 Sudeste 0 -- -- 35
2019-03-25 19:00:00 18.4 21 Sudeste 32 Este 0 -- -- 30
2019-03-25 18:00:00 20.9 17 Sudeste 31 Este 0 -- -- 29
2019-03-25 17:00:00 22 14 Sudeste 25 Este 0 -- -- 29
2019-03-25 16:00:00 22.2 12 Sudeste 26 Sudeste 0 -- -- 29
2019-03-25 15:00:00 22 12 Sudeste 25 Sudeste 0 -- -- 29
2019-03-25 14:00:00 21.8 7 Sudeste 22 Sudeste 0 -- -- 33
2019-03-25 13:00:00 20.2 6 Sudeste 17 Sudeste 0 -- -- 35
2019-03-25 12:00:00 17.7 4 Oeste 14 Oeste 0 -- -- 39
2019-03-25 11:00:00 14.2 10 Oeste 18 Noroeste 0 -- -- 49
2019-03-25 10:00:00 10.6 12 Noroeste 18 Oeste 0 -- -- 60
2019-03-25 09:00:00 7 11 Oeste 18 Oeste 0 -- -- 70
2019-03-25 08:00:00 4.8 10 Oeste 14 Oeste 0 -- -- 74
2019-03-25 07:00:00 5.3 9 Oeste 12 Oeste 0 -- -- 74
2019-03-25 06:00:00 5.3 8 Oeste 16 Oeste 0 -- -- 74
2019-03-25 05:00:00 6.1 11 Oeste 16 Oeste 0 -- -- 72
2019-03-25 04:00:00 6.5 9 Oeste 14 Oeste 0 -- -- 71
2019-03-25 03:00:00 7.5 11 Oeste 15 Oeste 0 -- -- 69
2019-03-25 02:00:00 7.2 4 Oeste 8 Oeste 0 -- -- 71
2019-03-25 01:00:00 8 3 Oeste 7 Oeste 0 -- -- 70
2019-03-25 00:00:00 7.9 0 Calma 5 Oeste 0 -- -- 67
2019-03-24 23:00:00 9.8 0 Calma 6 Este 0 -- -- 61
2019-03-24 22:00:00 10.8 0 Calma 6 Este 0 -- -- 57
2019-03-24 21:00:00 13.8 2 Sudeste 11 Sur 0 -- -- 47
2019-03-24 20:00:00 14.7 4 Sudeste 17 Sudeste 0 -- -- 45
2019-03-24 19:00:00 16.6 10 Sudeste 28 Sudeste 0 -- -- 40
2019-03-24 18:00:00 17.9 16 Sudeste 36 Sudeste 0 -- -- 39
2019-03-24 17:00:00 18.4 24 Sudeste 35 Sudeste 0 -- -- 38
2019-03-24 16:00:00 19.2 17 Sudeste 33 Sudeste 0 -- -- 39
2019-03-24 15:00:00 19.7 23 Sudeste 34 Sudeste 0 -- -- 39
2019-03-24 14:00:00 19.9 13 Sudeste 27 Sudeste 0 -- -- 40
2019-03-24 13:00:00 17.7 5 Sudeste 19 Sudeste 0 -- -- 46
2019-03-24 12:00:00 15.1 9 Oeste 16 Oeste 0 -- -- 52
2019-03-24 11:00:00 11.7 9 Oeste 16 Oeste 0 -- -- 66
2019-03-24 10:00:00 9 12 Oeste 17 Oeste 0 -- -- 74
2019-03-24 09:00:00 5.9 10 Oeste 14 Oeste 0 -- -- 87
2019-03-24 08:00:00 4.2 11 Oeste 17 Oeste 0 -- -- 93
2019-03-24 07:00:00 3.4 3 Oeste 12 Oeste 0 -- -- 94
2019-03-24 06:00:00 5 6 Oeste 15 Oeste 0 -- -- 91
2019-03-24 05:00:00 4.9 10 Oeste 16 Oeste 0 -- -- 93
2019-03-24 04:00:00 5.4 6 Oeste 10 Oeste 0 -- -- 93
2019-03-24 03:00:00 6.1 5 Oeste 9 Oeste 0 -- -- 93
2019-03-24 02:00:00 6.9 7 Oeste 12 Oeste 0 -- -- 89
2019-03-24 01:00:00 7.2 6 Oeste 8 Oeste 0 -- -- 91
2019-03-24 00:00:00 7.2 0 Calma -- -- 0 -- -- 94
2019-03-23 23:00:00 7.5 0 Calma 6 Sudeste 0 -- -- 90
2019-03-23 22:00:00 9.7 0 Calma 12 Sudeste 0 -- -- 83
2019-03-23 21:00:00 11.9 11 Sudeste 21 Sudeste 0 -- -- 78
2019-03-23 20:00:00 13.5 11 Sudeste 17 Sudeste 0 -- -- 58
2019-03-23 19:00:00 14.7 8 Sudeste 15 Sudeste 0 -- -- 56
2019-03-23 18:00:00 15.1 8 Sudeste 14 Sudeste 0 -- -- 55
2019-03-23 17:00:00 15 0 Calma -- -- 0 -- -- 56
2019-03-23 16:00:00 15 2 Noroeste 7 Oeste 0 -- -- 56
2019-03-23 15:00:00 14.6 5 Sudeste 13 Sur 0 -- -- 56
2019-03-23 14:00:00 14.1 10 Sudeste 19 Sudeste 0 -- -- 55
2019-03-23 13:00:00 14.7 4 Sur 9 Sudoeste 0 -- -- 51
2019-03-23 12:00:00 14.4 4 Oeste 9 Oeste 0 -- -- 52
2019-03-23 11:00:00 13.9 7 Oeste 12 Sudoeste 0 -- -- 52
2019-03-23 10:00:00 12.4 8 Oeste 13 Noroeste 0 -- -- 57
2019-03-23 09:00:00 11.6 5 Noroeste 9 Oeste 0 -- -- 57
2019-03-23 08:00:00 11 3 Oeste 14 Oeste 0 -- -- 56
2019-03-23 07:00:00 10.8 8 Oeste 13 Oeste 0 -- -- 56
2019-03-23 06:00:00 10.7 8 Oeste 18 Oeste 0 -- -- 57
2019-03-23 05:00:00 10.4 10 Oeste 18 Oeste 0 -- -- 60
2019-03-23 04:00:00 10.5 8 Oeste 16 Oeste 0 -- -- 60
2019-03-23 03:00:00 10.4 8 Oeste 16 Oeste 0 -- -- 61
2019-03-23 02:00:00 10.2 9 Oeste 16 Oeste 0 -- -- 61
2019-03-23 01:00:00 11.7 7 Oeste 14 Oeste 0 -- -- 57
2019-03-23 00:00:00 12 4 Oeste 10 Norte 0 -- -- 57
2019-03-22 23:00:00 12.8 6 Norte 12 Norte 0 -- -- 56
2019-03-22 22:00:00 11.9 2 Nordeste 6 Norte 0 -- -- 60
2019-03-22 21:00:00 12.9 0 Calma 6 Nordeste 0 -- -- 55
2019-03-22 20:00:00 15.5 4 Norte 12 Sudeste 0 -- -- 50
2019-03-22 19:00:00 16.4 8 Sudeste 16 Sudeste 0 -- -- 46
2019-03-22 18:00:00 17.7 10 Sudeste 26 Este 0 -- -- 42
2019-03-22 17:00:00 18.1 17 Este 25 Sudeste 0 -- -- 41
2019-03-22 16:00:00 19.9 13 Sudeste 29 Este 0 -- -- 36
2019-03-22 15:00:00 19.6 9 Nordeste 27 Nordeste 0 -- -- 36
2019-03-22 14:00:00 17.7 11 Oeste 19 Oeste 0 -- -- 40
2019-03-22 13:00:00 16.1 5 Oeste 18 Oeste 0 -- -- 44
2019-03-22 12:00:00 14.2 8 Oeste 21 Oeste 0 -- -- 49
2019-03-22 11:00:00 12.1 12 Oeste 21 Oeste 0 -- -- 58
2019-03-22 10:00:00 9 13 Noroeste 22 Oeste 0 -- -- 65
2019-03-22 09:00:00 6.8 12 Noroeste 19 Oeste 0 -- -- 71
2019-03-22 08:00:00 4.6 12 Oeste 22 Oeste 0 -- -- 77
2019-03-22 07:00:00 4.3 17 Oeste 24 Oeste 0 -- -- 78
2019-03-22 06:00:00 4.5 8 Oeste 19 Oeste 0 -- -- 79
2019-03-22 05:00:00 4.4 8 Oeste 17 Oeste 0 -- -- 76
2019-03-22 04:00:00 4.7 10 Oeste 21 Oeste 0 -- -- 74
2019-03-22 03:00:00 6.1 14 Oeste 20 Oeste 0 -- -- 77
2019-03-22 02:00:00 5.8 8 Oeste 14 Oeste 0 -- -- 72
2019-03-22 01:00:00 7.9 8 Oeste 15 Oeste 0 -- -- 63
2019-03-22 00:00:00 8.2 2 Noroeste 11 Nordeste 0 -- -- 58
2019-03-21 23:00:00 9.1 5 Norte 9 Norte 0 -- -- 47
2019-03-21 22:00:00 9.5 0 Calma 7 Sur 0 -- -- 42
2019-03-21 21:00:00 11.1 4 Nordeste 21 Nordeste 0 -- -- 39
2019-03-21 20:00:00 12.6 13 Nordeste 26 Nordeste 0 -- -- 37
2019-03-21 19:00:00 14.7 14 Nordeste 28 Nordeste 0 -- -- 36
2019-03-21 18:00:00 16.2 13 Nordeste 23 Norte 0 -- -- 35
2019-03-21 17:00:00 16.3 9 Nordeste 21 Este 0 -- -- 34
2019-03-21 16:00:00 16.1 6 Nordeste 20 Este 0 -- -- 35
2019-03-21 15:00:00 17 7 Nordeste 26 Nordeste 0 -- -- 34
2019-03-21 14:00:00 16.8 10 Nordeste 25 Este 0 -- -- 34
2019-03-21 13:00:00 14.8 9 Nordeste 24 Norte 0 -- -- 39
2019-03-21 12:00:00 14.1 6 Sur 18 Sur 0 -- -- 49
2019-03-21 11:00:00 10.9 11 Oeste 22 Oeste 0 -- -- 62
2019-03-21 10:00:00 8.1 13 Oeste 21 Noroeste 0 -- -- 71
2019-03-21 09:00:00 5.9 9 Noroeste 19 Oeste 0 -- -- 78
2019-03-21 08:00:00 2.9 10 Oeste 22 Oeste 0 -- -- 86
2019-03-21 07:00:00 2.9 13 Oeste 19 Oeste 0 -- -- 88
2019-03-21 06:00:00 3.2 9 Oeste 14 Oeste 0 -- -- 85
2019-03-21 05:00:00 3.5 11 Oeste 15 Noroeste 0 -- -- 84
2019-03-21 04:00:00 3.8 5 Noroeste 15 Noroeste 0 -- -- 80
2019-03-21 03:00:00 4.6 8 Oeste 13 Oeste 0 -- -- 83
2019-03-21 02:00:00 4.6 2 Noroeste 8 Oeste 0 -- -- 85
2019-03-21 01:00:00 4.3 0 Calma 5 Este 0 -- -- 82
2019-03-21 00:00:00 6.1 0 Calma 8 Este 0 -- -- 78